Time;durP1;ratioP1;P1;durP2;ratioP2;P2;SDS_P1;SDS_P2;PMS_P1;PMS_P2;Temp;Humidity;BMP_temperature;BMP_pressure;BME280_temperature;BME280_humidity;BME280_pressure;Samples;Min_cycle;Max_cycle;Signal;HPM_P1;HPM_P2
2022/07/16 00:03:33;;;;;;;;;;;15.10;99.90;;;;;;6216622;23;20333;-70
2022/07/16 00:05:59;;;;;;;;;;;15.10;99.90;;;;;;6190037;23;19962;-70
2022/07/16 00:08:25;;;;;;;;;;;15.10;99.90;;;;;;6190005;23;19922;-71
2022/07/16 00:10:51;;;;;;;;;;;15.10;99.90;;;;;;6216550;23;19919;-71
2022/07/16 00:13:16;;;;;;;;;;;15.00;99.90;;;;;;6216340;23;20389;-70
2022/07/16 00:15:42;;;;;;;;;;;15.00;99.90;;;;;;6216541;23;19954;-70
2022/07/16 00:20:51;;;;;;;;;;;14.90;99.90;;;;;;6216478;23;19920;-69
2022/07/16 00:23:17;;;;;;;;;;;15.00;99.90;;;;;;6216513;23;19916;-70
2022/07/16 00:25:42;;;;;;;;;;;15.00;99.90;;;;;;6216453;23;19916;-70
2022/07/16 00:28:08;;;;;;;;;;;14.90;99.90;;;;;;6216420;23;19916;-70
2022/07/16 00:30:34;;;;;;;;;;;14.90;99.90;;;;;;6216417;23;19975;-70
2022/07/16 00:32:59;;;;;;;;;;;14.90;99.90;;;;;;6216373;23;19923;-69
2022/07/16 00:35:26;;;;;;;;;;;14.90;99.90;;;;;;6216465;23;19970;-71
2022/07/16 00:37:51;;;;;;;;;;;14.80;99.90;;;;;;6216368;23;19955;-70
2022/07/16 00:40:17;;;;;;;;;;;14.80;99.90;;;;;;6216398;23;19924;-70
2022/07/16 00:42:42;;;;;;;;;;;14.70;99.90;;;;;;6216488;23;20300;-70
2022/07/16 00:45:09;;;;;;;;;;;14.70;99.90;;;;;;6216295;23;19923;-70
2022/07/16 00:47:34;;;;;;;;;;;14.70;99.90;;;;;;6216201;23;19995;-68
2022/07/16 00:50:00;;;;;;;;;;;14.70;99.90;;;;;;6216332;23;19954;-70
2022/07/16 00:52:25;;;;;;;;;;;14.70;99.90;;;;;;6189446;23;19916;-70
2022/07/16 00:54:51;;;;;;;;;;;14.70;99.90;;;;;;6216202;23;19951;-71
2022/07/16 00:57:17;;;;;;;;;;;14.70;99.90;;;;;;6216286;23;19920;-69
2022/07/16 00:59:43;;;;;;;;;;;14.80;99.90;;;;;;6216367;23;19923;-70
2022/07/16 01:02:08;;;;;;;;;;;14.80;99.90;;;;;;6215981;23;19916;-69
2022/07/16 01:04:34;;;;;;;;;;;14.00;99.90;;;;;;6189806;23;19970;-70
2022/07/16 01:07:00;;;;;;;;;;;14.80;99.90;;;;;;6189867;23;19947;-70
2022/07/16 01:09:26;;;;;;;;;;;14.80;99.90;;;;;;6189350;23;19962;-70
2022/07/16 01:11:51;;;;;;;;;;;14.80;99.90;;;;;;6216199;23;20306;-71
2022/07/16 01:14:17;;;;;;;;;;;14.80;99.90;;;;;;6216221;23;19923;-69
2022/07/16 01:16:43;;;;;;;;;;;14.80;99.90;;;;;;6216181;23;19916;-70
2022/07/16 01:19:10;;;;;;;;;;;14.90;99.90;;;;;;6216210;23;19995;-70
2022/07/16 01:21:35;;;;;;;;;;;14.90;99.90;;;;;;6216258;23;19916;-70
2022/07/16 01:24:01;;;;;;;;;;;14.80;99.90;;;;;;6216191;23;19922;-70
2022/07/16 01:26:27;;;;;;;;;;;14.80;99.90;;;;;;6216109;23;19919;-70
2022/07/16 01:28:52;;;;;;;;;;;14.80;99.90;;;;;;6189105;23;19926;-69
2022/07/16 01:31:18;;;;;;;;;;;14.80;99.90;;;;;;6217843;23;19990;-70
2022/07/16 01:33:43;;;;;;;;;;;14.70;99.90;;;;;;6190994;23;19916;-71
2022/07/16 01:36:10;;;;;;;;;;;14.80;99.90;;;;;;6218017;23;19970;-71
2022/07/16 01:38:43;;;;;;;;;;;14.70;99.90;;;;;;6191457;23;19998;-70
2022/07/16 01:41:09;;;;;;;;;;;14.70;99.90;;;;;;6191330;23;20246;-70
2022/07/16 01:43:35;;;;;;;;;;;14.70;99.90;;;;;;6217618;23;19923;-70
2022/07/16 01:46:01;;;;;;;;;;;14.70;99.90;;;;;;6217907;23;19916;-69
2022/07/16 01:48:26;;;;;;;;;;;14.70;99.90;;;;;;6217836;23;19995;-69
2022/07/16 01:50:53;;;;;;;;;;;14.70;99.90;;;;;;6191294;23;20330;-71
2022/07/16 01:53:18;;;;;;;;;;;14.70;99.90;;;;;;6217838;23;19922;-70
2022/07/16 01:55:44;;;;;;;;;;;14.70;99.90;;;;;;6191144;23;19951;-70
2022/07/16 01:58:10;;;;;;;;;;;14.70;99.90;;;;;;6217795;23;20336;-70
2022/07/16 02:00:37;;;;;;;;;;;14.70;99.90;;;;;;6217839;23;20317;-68
2022/07/16 02:03:03;;;;;;;;;;;14.70;99.90;;;;;;6191139;23;19955;-69
2022/07/16 02:05:29;;;;;;;;;;;14.70;99.90;;;;;;6190891;23;19958;-70
2022/07/16 02:07:54;;;;;;;;;;;14.70;99.90;;;;;;6191055;23;19915;-70
2022/07/16 02:10:20;;;;;;;;;;;14.70;99.90;;;;;;6191072;23;19965;-69
2022/07/16 02:12:46;;;;;;;;;;;14.80;99.90;;;;;;6191099;23;19915;-69
2022/07/16 02:15:12;;;;;;;;;;;14.70;99.90;;;;;;6217846;23;20014;-70
2022/07/16 02:17:37;;;;;;;;;;;14.70;99.90;;;;;;6217649;23;19923;-70
2022/07/16 02:20:04;;;;;;;;;;;14.70;99.90;;;;;;6217579;23;19963;-70
2022/07/16 02:22:29;;;;;;;;;;;14.60;99.90;;;;;;6217613;23;20292;-69
2022/07/16 02:24:55;;;;;;;;;;;14.60;99.90;;;;;;6217456;23;19923;-70
2022/07/16 02:27:20;;;;;;;;;;;14.60;99.90;;;;;;6217522;23;20011;-70
2022/07/16 02:29:46;;;;;;;;;;;14.60;99.90;;;;;;6217419;23;19939;-71
2022/07/16 02:32:11;;;;;;;;;;;14.60;99.90;;;;;;6217508;23;19922;-70
2022/07/16 02:34:37;;;;;;;;;;;14.60;99.90;;;;;;6217482;23;19916;-70
2022/07/16 02:37:02;;;;;;;;;;;14.50;99.90;;;;;;6217586;23;19990;-70
2022/07/16 02:39:28;;;;;;;;;;;14.70;99.90;;;;;;6217498;23;20317;-69
2022/07/16 02:41:54;;;;;;;;;;;15.10;99.90;;;;;;6217001;23;19995;-69
2022/07/16 02:44:19;;;;;;;;;;;15.20;99.90;;;;;;6217013;23;19994;-71
2022/07/16 02:46:45;;;;;;;;;;;14.50;99.90;;;;;;6217617;23;19916;-70
2022/07/16 02:49:10;;;;;;;;;;;14.50;99.90;;;;;;6190646;23;19995;-70
2022/07/16 02:51:36;;;;;;;;;;;14.50;99.90;;;;;;6216929;23;19916;-69
2022/07/16 02:54:02;;;;;;;;;;;14.50;99.90;;;;;;6217252;23;19916;-70
2022/07/16 02:56:27;;;;;;;;;;;14.50;99.90;;;;;;6190713;23;19920;-70
2022/07/16 02:58:53;;;;;;;;;;;14.90;99.90;;;;;;6217275;23;19978;-69
2022/07/16 03:01:18;;;;;;;;;;;14.40;99.90;;;;;;6190567;23;19923;-69
2022/07/16 03:03:44;;;;;;;;;;;14.40;99.90;;;;;;6217572;23;19916;-70
2022/07/16 03:06:09;;;;;;;;;;;14.40;99.90;;;;;;6217154;23;20245;-71
2022/07/16 03:08:35;;;;;;;;;;;14.30;99.90;;;;;;6216971;23;19919;-70
2022/07/16 03:11:01;;;;;;;;;;;14.10;99.90;;;;;;6217084;23;20397;-70
2022/07/16 03:13:26;;;;;;;;;;;14.40;99.90;;;;;;6216683;23;19959;-71
2022/07/16 03:15:53;;;;;;;;;;;14.20;99.90;;;;;;6217163;23;19926;-70
2022/07/16 03:18:19;;;;;;;;;;;14.20;99.90;;;;;;6217082;23;19977;-70
2022/07/16 03:20:45;;;;;;;;;;;14.30;99.90;;;;;;6216939;23;19995;-69
2022/07/16 03:23:10;;;;;;;;;;;14.20;99.90;;;;;;6190520;23;19915;-71
2022/07/16 03:25:36;;;;;;;;;;;14.20;99.90;;;;;;6216808;23;19915;-70
2022/07/16 03:28:01;;;;;;;;;;;14.30;99.90;;;;;;6216849;23;19927;-71
2022/07/16 03:30:27;;;;;;;;;;;14.20;99.90;;;;;;6216931;23;19922;-71
2022/07/16 03:32:53;;;;;;;;;;;14.10;99.90;;;;;;6216501;23;19923;-70
2022/07/16 03:35:18;;;;;;;;;;;14.10;99.90;;;;;;6216852;23;19920;-70
2022/07/16 03:40:28;;;;;;;;;;;14.00;99.90;;;;;;6216817;23;20007;-70
2022/07/16 03:42:54;;;;;;;;;;;14.00;99.90;;;;;;6216806;23;20406;-70
2022/07/16 03:45:20;;;;;;;;;;;13.90;99.90;;;;;;6216733;23;19916;-69
2022/07/16 03:47:45;;;;;;;;;;;13.90;99.90;;;;;;6216581;23;19930;-71
2022/07/16 03:50:11;;;;;;;;;;;13.90;99.90;;;;;;6216389;23;19939;-71
2022/07/16 03:52:36;;;;;;;;;;;13.90;99.90;;;;;;6189979;23;19920;-69
2022/07/16 03:55:02;;;;;;;;;;;13.80;99.90;;;;;;6216445;23;19920;-70
2022/07/16 03:57:27;;;;;;;;;;;13.80;99.90;;;;;;6216621;23;19922;-70
2022/07/16 03:59:53;;;;;;;;;;;13.70;99.90;;;;;;6216826;23;19916;-69
2022/07/16 04:02:18;;;;;;;;;;;13.80;99.90;;;;;;6216746;23;19916;-70
2022/07/16 04:04:44;;;;;;;;;;;13.70;99.90;;;;;;6216634;23;19990;-70
2022/07/16 04:07:09;;;;;;;;;;;13.60;99.90;;;;;;6216632;23;19958;-70
2022/07/16 04:09:35;;;;;;;;;;;13.60;99.90;;;;;;6189529;23;19915;-70
2022/07/16 04:12:00;;;;;;;;;;;13.60;99.90;;;;;;6216513;23;19970;-70
2022/07/16 04:14:26;;;;;;;;;;;13.50;99.90;;;;;;6216698;23;19923;-70
2022/07/16 04:16:51;;;;;;;;;;;13.60;99.90;;;;;;6216581;23;19915;-70
2022/07/16 04:19:17;;;;;;;;;;;13.50;99.90;;;;;;6216473;23;19923;-69
2022/07/16 04:21:43;;;;;;;;;;;13.40;99.90;;;;;;6216471;23;19931;-71
2022/07/16 04:24:08;;;;;;;;;;;13.50;99.90;;;;;;6216435;23;19923;-69
2022/07/16 04:26:34;;;;;;;;;;;13.40;99.90;;;;;;6189829;23;19916;-71
2022/07/16 04:28:59;;;;;;;;;;;13.40;99.90;;;;;;6216428;23;20322;-71
2022/07/16 04:31:25;;;;;;;;;;;13.40;99.90;;;;;;6189914;23;19938;-69
2022/07/16 04:33:50;;;;;;;;;;;13.50;99.90;;;;;;6216487;23;19916;-70
2022/07/16 04:36:16;;;;;;;;;;;13.30;99.90;;;;;;6216386;23;19922;-69
2022/07/16 04:38:41;;;;;;;;;;;13.50;99.90;;;;;;6189877;23;19919;-70
2022/07/16 04:41:07;;;;;;;;;;;13.50;99.90;;;;;;6189860;23;19916;-70
2022/07/16 04:43:33;;;;;;;;;;;13.50;99.90;;;;;;6216165;23;20373;-69
2022/07/16 04:45:58;;;;;;;;;;;13.60;99.90;;;;;;6216437;23;19923;-69
2022/07/16 04:48:24;;;;;;;;;;;13.60;99.90;;;;;;6189658;23;20206;-69
2022/07/16 04:50:49;;;;;;;;;;;13.50;99.90;;;;;;6216311;23;19916;-70
2022/07/16 04:53:15;;;;;;;;;;;13.60;99.90;;;;;;6216340;23;19923;-71
2022/07/16 04:55:40;;;;;;;;;;;13.60;99.90;;;;;;6216305;23;19916;-70
2022/07/16 04:58:06;;;;;;;;;;;13.60;99.90;;;;;;6216378;23;20240;-69
2022/07/16 05:00:32;;;;;;;;;;;13.70;99.90;;;;;;6189664;23;19916;-70
2022/07/16 05:02:57;;;;;;;;;;;13.70;99.90;;;;;;6216318;23;19995;-69
2022/07/16 05:05:24;;;;;;;;;;;13.80;99.90;;;;;;6217465;23;19947;-70
2022/07/16 05:07:50;;;;;;;;;;;13.80;99.90;;;;;;6218127;23;20292;-70
2022/07/16 05:10:15;;;;;;;;;;;13.80;99.90;;;;;;6191663;23;19951;-70
2022/07/16 05:12:41;;;;;;;;;;;13.90;99.90;;;;;;6217893;23;19916;-69
2022/07/16 05:15:07;;;;;;;;;;;13.90;99.90;;;;;;6218384;23;19916;-69
2022/07/16 05:17:32;;;;;;;;;;;13.90;99.90;;;;;;6218138;23;19990;-69
2022/07/16 05:19:58;;;;;;;;;;;12.90;99.90;;;;;;6218189;23;19938;-69
2022/07/16 05:22:23;;;;;;;;;;;14.20;99.90;;;;;;6218170;23;19916;-70
2022/07/16 05:24:49;;;;;;;;;;;14.00;99.90;;;;;;6218198;23;20317;-70
2022/07/16 05:27:14;;;;;;;;;;;14.00;99.90;;;;;;6218078;23;19947;-71
2022/07/16 05:29:40;;;;;;;;;;;14.00;99.90;;;;;;6191147;23;20258;-70
2022/07/16 05:32:06;;;;;;;;;;;14.10;99.90;;;;;;6217945;23;19916;-70
2022/07/16 05:34:31;;;;;;;;;;;14.10;99.90;;;;;;6166640;23;19970;-70
2022/07/16 05:36:57;;;;;;;;;;;14.20;99.90;;;;;;6218409;23;19923;-70
2022/07/16 05:39:22;;;;;;;;;;;14.00;99.90;;;;;;6217966;23;19947;-69
2022/07/16 05:41:48;;;;;;;;;;;14.40;99.90;;;;;;6218089;23;19916;-70
2022/07/16 05:44:13;;;;;;;;;;;14.30;99.90;;;;;;6217507;23;20316;-70
2022/07/16 05:46:39;;;;;;;;;;;14.30;99.90;;;;;;6217516;23;19916;-70
2022/07/16 05:49:05;;;;;;;;;;;14.30;99.90;;;;;;6217343;23;19915;-70
2022/07/16 05:51:31;;;;;;;;;;;14.10;99.90;;;;;;6191363;23;19915;-72
2022/07/16 05:53:56;;;;;;;;;;;14.30;99.90;;;;;;6217860;23;19986;-71
2022/07/16 05:56:22;;;;;;;;;;;14.40;99.90;;;;;;6191219;23;19920;-70
2022/07/16 05:58:48;;;;;;;;;;;14.40;99.90;;;;;;6217803;23;19923;-69
2022/07/16 06:01:13;;;;;;;;;;;14.80;99.90;;;;;;6217868;23;19978;-71
2022/07/16 06:03:39;;;;;;;;;;;14.40;99.90;;;;;;6217807;23;19985;-70
2022/07/16 06:06:04;;;;;;;;;;;14.80;99.90;;;;;;6218171;23;20288;-69
2022/07/16 06:08:30;;;;;;;;;;;14.40;99.90;;;;;;6217271;23;19916;-70
2022/07/16 06:10:56;;;;;;;;;;;13.50;99.90;;;;;;6217625;23;19915;-70
2022/07/16 06:13:21;;;;;;;;;;;14.40;99.90;;;;;;6217663;23;20344;-70
2022/07/16 06:15:50;;;;;;;;;;;14.40;99.90;;;;;;6190790;23;20322;-71
2022/07/16 06:18:15;;;;;;;;;;;14.40;99.90;;;;;;6217580;23;19915;-70
2022/07/16 06:20:41;;;;;;;;;;;14.40;99.90;;;;;;6217957;23;20309;-70
2022/07/16 06:23:06;;;;;;;;;;;14.40;99.90;;;;;;6217535;23;19916;-69
2022/07/16 06:25:32;;;;;;;;;;;14.50;99.90;;;;;;6217486;23;19920;-70
2022/07/16 06:27:58;;;;;;;;;;;14.50;99.90;;;;;;6190945;23;20292;-69
2022/07/16 06:30:24;;;;;;;;;;;14.60;99.90;;;;;;6217489;23;19916;-70
2022/07/16 06:32:49;;;;;;;;;;;14.70;99.90;;;;;;6190983;23;19958;-70
2022/07/16 06:35:15;;;;;;;;;;;14.50;99.90;;;;;;6166122;23;19923;-69
2022/07/16 06:37:40;;;;;;;;;;;14.80;99.90;;;;;;6217490;23;19916;-70
2022/07/16 06:40:06;;;;;;;;;;;14.80;99.90;;;;;;6217330;23;19961;-70
2022/07/16 06:42:32;;;;;;;;;;;14.90;99.90;;;;;;6217409;23;19916;-69
2022/07/16 06:44:58;;;;;;;;;;;14.90;99.90;;;;;;6217149;23;19971;-70
2022/07/16 06:47:24;;;;;;;;;;;15.00;99.90;;;;;;6190748;23;20327;-70
2022/07/16 06:49:49;;;;;;;;;;;15.00;99.90;;;;;;6190135;23;19970;-70
2022/07/16 06:52:15;;;;;;;;;;;15.10;99.90;;;;;;6217264;23;19916;-71
2022/07/16 06:54:41;;;;;;;;;;;15.10;99.90;;;;;;6217254;23;19986;-71
2022/07/16 06:57:06;;;;;;;;;;;15.20;99.90;;;;;;6215441;23;20345;-70
2022/07/16 06:59:32;;;;;;;;;;;15.30;99.90;;;;;;6190700;23;19990;-70
2022/07/16 07:01:57;;;;;;;;;;;15.30;99.90;;;;;;6190469;23;19915;-70
2022/07/16 07:04:23;;;;;;;;;;;15.20;99.90;;;;;;6217032;23;19923;-70
2022/07/16 07:06:48;;;;;;;;;;;15.30;99.90;;;;;;6217040;23;19951;-70
2022/07/16 07:09:14;;;;;;;;;;;15.30;99.90;;;;;;6216903;23;19923;-70
2022/07/16 07:11:42;;;;;;;;;;;15.40;99.90;;;;;;6216959;23;19915;-69
2022/07/16 07:14:08;;;;;;;;;;;15.40;99.90;;;;;;6190417;23;19923;-71
2022/07/16 07:16:33;;;;;;;;;;;15.40;99.90;;;;;;6217300;23;19922;-70
2022/07/16 07:18:59;;;;;;;;;;;16.00;99.90;;;;;;6216946;23;19990;-71
2022/07/16 07:21:24;;;;;;;;;;;15.30;99.90;;;;;;6216946;23;19963;-68
2022/07/16 07:23:50;;;;;;;;;;;15.30;99.90;;;;;;6190382;23;19924;-69
2022/07/16 07:26:16;;;;;;;;;;;15.30;99.90;;;;;;6216662;23;19916;-71
2022/07/16 07:28:42;;;;;;;;;;;15.30;99.90;;;;;;6216735;23;19919;-70
2022/07/16 07:31:07;;;;;;;;;;;15.40;99.90;;;;;;6216933;23;19916;-71
2022/07/16 07:33:33;;;;;;;;;;;15.50;99.90;;;;;;6190463;23;19920;-69
2022/07/16 07:35:58;;;;;;;;;;;15.70;99.90;;;;;;6190301;23;19916;-70
2022/07/16 07:38:24;;;;;;;;;;;15.60;99.90;;;;;;6216833;23;19916;-70
2022/07/16 07:40:49;;;;;;;;;;;15.60;99.90;;;;;;6216712;23;19919;-70
2022/07/16 07:43:16;;;;;;;;;;;15.60;99.90;;;;;;6216563;23;20241;-69
2022/07/16 07:45:42;;;;;;;;;;;15.70;99.90;;;;;;6189820;23;19916;-70
2022/07/16 07:48:07;;;;;;;;;;;15.80;99.90;;;;;;6216893;23;19922;-70
2022/07/16 07:50:33;;;;;;;;;;;15.90;99.90;;;;;;6216688;23;19916;-71
2022/07/16 07:52:59;;;;;;;;;;;16.00;99.90;;;;;;6216722;23;19916;-71
2022/07/16 07:55:24;;;;;;;;;;;16.00;99.90;;;;;;6189933;23;19916;-70
2022/07/16 07:57:50;;;;;;;;;;;16.00;99.90;;;;;;6190059;23;19916;-69
2022/07/16 08:00:15;;;;;;;;;;;16.00;99.90;;;;;;6216617;23;19916;-71
2022/07/16 08:02:45;;;;;;;;;;;16.10;99.90;;;;;;6189152;23;20372;-72
2022/07/16 08:05:11;;;;;;;;;;;16.10;99.90;;;;;;6190047;23;20223;-69
2022/07/16 08:07:36;;;;;;;;;;;16.20;99.90;;;;;;6215653;23;19962;-70
2022/07/16 08:10:03;;;;;;;;;;;16.20;99.90;;;;;;6215640;23;19963;-71
2022/07/16 08:12:28;;;;;;;;;;;16.20;99.90;;;;;;6216307;23;19916;-71
2022/07/16 08:14:54;;;;;;;;;;;16.30;99.90;;;;;;6216644;23;20322;-70
2022/07/16 08:17:19;;;;;;;;;;;16.20;99.90;;;;;;6216565;23;19916;-70
2022/07/16 08:19:45;;;;;;;;;;;16.20;99.90;;;;;;6216519;23;19923;-71
2022/07/16 08:22:11;;;;;;;;;;;16.20;99.90;;;;;;6216422;23;20385;-71
2022/07/16 08:27:20;;;;;;;;;;;16.50;99.90;;;;;;6216163;23;19923;-71
2022/07/16 08:29:46;;;;;;;;;;;16.20;99.90;;;;;;6216373;23;19917;-70
2022/07/16 08:32:11;;;;;;;;;;;16.20;99.90;;;;;;6216480;23;19956;-70
2022/07/16 08:34:37;;;;;;;;;;;16.20;99.90;;;;;;6216441;23;19922;-70
2022/07/16 08:37:05;;;;;;;;;;;16.30;99.90;;;;;;6216506;23;19920;-69
2022/07/16 08:39:31;;;;;;;;;;;15.20;99.90;;;;;;6217590;23;19923;-68
2022/07/16 08:41:57;;;;;;;;;;;16.40;99.90;;;;;;6219666;23;19916;-70
2022/07/16 08:44:23;;;;;;;;;;;16.30;99.90;;;;;;6219679;23;19995;-71
2022/07/16 08:46:48;;;;;;;;;;;16.30;99.90;;;;;;6219620;23;19970;-70
2022/07/16 08:49:17;;;;;;;;;;;16.50;99.90;;;;;;6191964;23;19920;-69
2022/07/16 08:51:44;;;;;;;;;;;16.20;99.90;;;;;;6219418;23;19919;-71
2022/07/16 08:54:12;;;;;;;;;;;16.20;99.90;;;;;;6219377;23;19916;-70
2022/07/16 08:56:38;;;;;;;;;;;16.20;99.90;;;;;;6192264;23;19916;-70
2022/07/16 08:59:05;;;;;;;;;;;16.10;99.90;;;;;;6219274;23;19927;-70
2022/07/16 09:01:31;;;;;;;;;;;16.10;99.90;;;;;;6167513;23;19951;-70
2022/07/16 09:03:57;;;;;;;;;;;16.10;99.90;;;;;;6219436;23;19961;-71
2022/07/16 09:06:23;;;;;;;;;;;16.00;99.90;;;;;;6219312;23;19919;-70
2022/07/16 09:08:49;;;;;;;;;;;16.10;99.90;;;;;;6218858;23;20388;-70
2022/07/16 09:11:17;;;;;;;;;;;16.10;99.90;;;;;;6192625;23;19916;-70
2022/07/16 09:13:58;;;;;;;;;;;16.20;99.90;;;;;;6219257;23;19920;-70
2022/07/16 09:16:36;;;;;;;;;;;16.30;99.90;;;;;;6219246;23;19928;-69
2022/07/16 09:19:06;;;;;;;;;;;16.40;99.90;;;;;;6219329;23;20245;-70
2022/07/16 09:21:32;;;;;;;;;;;16.50;99.90;;;;;;6219418;23;20298;-71
2022/07/16 09:23:58;;;;;;;;;;;16.60;99.90;;;;;;6219324;23;19955;-70
2022/07/16 09:26:27;;;;;;;;;;;16.60;99.90;;;;;;6219030;23;19916;-70
2022/07/16 09:28:53;;;;;;;;;;;16.60;99.90;;;;;;6218753;23;19935;-69
2022/07/16 09:31:33;;;;;;;;;;;16.60;99.90;;;;;;6219448;23;19916;-71
2022/07/16 09:34:04;;;;;;;;;;;16.60;99.90;;;;;;6219307;23;19955;-71
2022/07/16 09:36:30;;;;;;;;;;;16.60;99.90;;;;;;6219330;23;19923;-70
2022/07/16 09:38:56;;;;;;;;;;;16.60;99.90;;;;;;6219253;23;19915;-70
2022/07/16 09:41:22;;;;;;;;;;;16.70;99.90;;;;;;6192453;23;19915;-70
2022/07/16 09:43:48;;;;;;;;;;;16.70;99.90;;;;;;6218791;23;19923;-70
2022/07/16 09:46:15;;;;;;;;;;;16.70;99.90;;;;;;6219196;23;19916;-70
2022/07/16 09:48:42;;;;;;;;;;;16.10;99.90;;;;;;6219082;23;19919;-71
2022/07/16 09:51:13;;;;;;;;;;;16.60;99.90;;;;;;6218436;23;20387;-70
2022/07/16 09:53:40;;;;;;;;;;;16.60;99.90;;;;;;6217550;23;19961;-70
2022/07/16 09:56:07;;;;;;;;;;;16.50;99.90;;;;;;6190958;23;19915;-70
2022/07/16 09:58:34;;;;;;;;;;;16.50;99.90;;;;;;6191029;23;19924;-71
2022/07/16 10:01:00;;;;;;;;;;;16.40;99.90;;;;;;6217523;23;19915;-70
2022/07/16 10:03:26;;;;;;;;;;;16.50;99.90;;;;;;6190530;23;19916;-69
2022/07/16 10:05:52;;;;;;;;;;;16.60;99.90;;;;;;6190877;23;20280;-71
2022/07/16 10:08:17;;;;;;;;;;;16.60;99.90;;;;;;6217342;23;20333;-69
2022/07/16 10:10:46;;;;;;;;;;;16.70;99.90;;;;;;6217338;23;19955;-71
2022/07/16 10:13:13;;;;;;;;;;;16.80;99.90;;;;;;6190709;23;19922;-70
2022/07/16 10:15:39;;;;;;;;;;;16.90;99.90;;;;;;6217397;23;19916;-71
2022/07/16 10:18:25;;;;;;;;;;;17.00;99.90;;;;;;6190431;23;19924;-70
2022/07/16 10:21:05;;;;;;;;;;;17.10;99.90;;;;;;6200646;23;19954;-70
2022/07/16 10:23:32;;;;;;;;;;;17.00;99.90;;;;;;6217324;23;19970;-70
2022/07/16 10:25:58;;;;;;;;;;;16.30;99.90;;;;;;6190457;23;20230;-71
2022/07/16 10:28:43;;;;;;;;;;;17.00;99.90;;;;;;6217534;23;20302;-69
2022/07/16 10:31:28;;;;;;;;;;;17.00;99.90;;;;;;6190277;23;19965;-70
2022/07/16 10:34:12;;;;;;;;;;;17.00;99.90;;;;;;6190664;23;19966;-70
2022/07/16 10:37:04;;;;;;;;;;;17.10;99.90;;;;;;6216830;23;19920;-71
2022/07/16 10:39:30;;;;;;;;;;;17.00;99.90;;;;;;6185680;23;19916;-70
2022/07/16 10:41:56;;;;;;;;;;;17.00;99.90;;;;;;6216905;23;20314;-69
2022/07/16 10:44:23;;;;;;;;;;;16.90;99.90;;;;;;6190195;23;19925;-69
2022/07/16 10:46:56;;;;;;;;;;;16.90;99.90;;;;;;6217037;23;19916;-70
2022/07/16 10:49:22;;;;;;;;;;;17.00;99.90;;;;;;6216981;23;19923;-70
2022/07/16 10:51:56;;;;;;;;;;;17.10;99.90;;;;;;6217007;23;19958;-70
2022/07/16 10:54:22;;;;;;;;;;;17.20;99.90;;;;;;6216967;23;19915;-70
2022/07/16 10:56:48;;;;;;;;;;;17.20;99.90;;;;;;6216865;23;19916;-70
2022/07/16 10:59:15;;;;;;;;;;;17.50;99.90;;;;;;6190466;23;20222;-71
2022/07/16 11:01:42;;;;;;;;;;;17.30;99.90;;;;;;6190465;23;19942;-70
2022/07/16 11:04:08;;;;;;;;;;;17.30;99.90;;;;;;6216372;23;20372;-71
2022/07/16 11:06:33;;;;;;;;;;;17.30;99.90;;;;;;6216913;23;19927;-71
2022/07/16 11:09:00;;;;;;;;;;;17.30;99.90;;;;;;6216743;23;19916;-69
2022/07/16 11:11:32;;;;;;;;;;;17.30;99.90;;;;;;6190280;23;20277;-71
2022/07/16 11:13:58;;;;;;;;;;;17.30;99.90;;;;;;6216857;23;19922;-71
2022/07/16 11:16:24;;;;;;;;;;;17.30;99.90;;;;;;6217239;23;19916;-70
2022/07/16 11:18:49;;;;;;;;;;;17.40;99.90;;;;;;6216891;23;19916;-69
2022/07/16 11:21:15;;;;;;;;;;;17.40;99.90;;;;;;6216752;23;19969;-71
2022/07/16 11:23:55;;;;;;;;;;;17.40;99.90;;;;;;6216753;23;19938;-70
2022/07/16 11:26:22;;;;;;;;;;;16.70;99.90;;;;;;6216409;23;19916;-69
2022/07/16 11:28:53;;;;;;;;;;;17.30;99.90;;;;;;6189873;23;19923;-70
2022/07/16 11:31:27;;;;;;;;;;;17.20;99.90;;;;;;6216658;23;19959;-70
2022/07/16 11:33:54;;;;;;;;;;;17.20;99.90;;;;;;6190124;23;20284;-70
2022/07/16 11:36:19;;;;;;;;;;;17.20;99.90;;;;;;6190105;23;19920;-71
2022/07/16 11:38:46;;;;;;;;;;;17.30;99.90;;;;;;6214743;23;20245;-71
2022/07/16 11:41:12;;;;;;;;;;;17.30;99.90;;;;;;6188582;23;19916;-71
2022/07/16 11:43:38;;;;;;;;;;;17.20;99.90;;;;;;6216425;23;19916;-72
2022/07/16 11:46:04;;;;;;;;;;;17.20;99.90;;;;;;6189665;23;19951;-69
2022/07/16 11:48:35;;;;;;;;;;;17.10;99.90;;;;;;6216488;23;19970;-71
2022/07/16 11:51:05;;;;;;;;;;;17.10;99.90;;;;;;6216252;23;19923;-70
2022/07/16 11:53:37;;;;;;;;;;;17.10;99.90;;;;;;6216101;23;20284;-70
2022/07/16 11:56:05;;;;;;;;;;;17.10;99.90;;;;;;6189314;23;19920;-70
2022/07/16 11:58:31;;;;;;;;;;;17.10;99.90;;;;;;6215942;23;19916;-70
2022/07/16 12:00:56;;;;;;;;;;;17.10;99.90;;;;;;6189920;23;20218;-71
2022/07/16 12:03:22;;;;;;;;;;;17.20;99.90;;;;;;6216428;23;20341;-70
2022/07/16 12:05:58;;;;;;;;;;;17.30;99.90;;;;;;6216343;23;19922;-70
2022/07/16 12:08:23;;;;;;;;;;;17.30;99.90;;;;;;6189503;23;19970;-70
2022/07/16 12:11:00;;;;;;;;;;;17.30;99.90;;;;;;6216291;23;19916;-70
2022/07/16 12:13:26;;;;;;;;;;;17.30;99.90;;;;;;6216404;23;19915;-69
2022/07/16 12:15:53;;;;;;;;;;;17.30;99.90;;;;;;6216479;23;20214;-70
2022/07/16 12:18:19;;;;;;;;;;;17.30;99.90;;;;;;6164694;23;19916;-70
2022/07/16 12:20:45;;;;;;;;;;;17.30;99.90;;;;;;6216188;23;19922;-70
2022/07/16 12:23:11;;;;;;;;;;;17.40;99.90;;;;;;6216292;23;19947;-70
2022/07/16 12:25:38;;;;;;;;;;;17.50;99.90;;;;;;6216289;23;19915;-69
2022/07/16 12:28:19;;;;;;;;;;;17.50;99.90;;;;;;6215566;23;19955;-70
2022/07/16 12:30:58;;;;;;;;;;;17.50;99.90;;;;;;6216279;23;19978;-70
2022/07/16 12:33:29;;;;;;;;;;;17.50;99.90;;;;;;6189569;23;19963;-69
2022/07/16 12:35:58;;;;;;;;;;;17.60;99.90;;;;;;6215759;23;19915;-71
2022/07/16 12:38:39;;;;;;;;;;;17.60;99.90;;;;;;6216136;23;19990;-69
2022/07/16 12:41:11;;;;;;;;;;;17.60;99.90;;;;;;6215776;23;19919;-72
2022/07/16 12:43:37;;;;;;;;;;;17.60;99.90;;;;;;6215813;23;19916;-71
2022/07/16 12:46:03;;;;;;;;;;;17.70;99.90;;;;;;6216184;23;19916;-70
2022/07/16 12:48:29;;;;;;;;;;;17.70;99.90;;;;;;6215975;23;19916;-70
2022/07/16 12:50:55;;;;;;;;;;;17.70;99.90;;;;;;6216220;23;19923;-70
2022/07/16 12:53:21;;;;;;;;;;;17.80;99.90;;;;;;6216197;23;20333;-71
2022/07/16 12:58:49;;;;;;;;;;;17.90;99.90;;;;;;6215953;23;19947;-70
2022/07/16 13:01:18;;;;;;;;;;;18.10;99.90;;;;;;6215951;23;19915;-70
2022/07/16 13:03:45;;;;;;;;;;;18.10;99.90;;;;;;6189523;23;20348;-70
2022/07/16 13:06:11;;;;;;;;;;;18.20;99.90;;;;;;6216090;23;19982;-69
2022/07/16 13:08:36;;;;;;;;;;;18.10;99.90;;;;;;6212793;23;20356;-70
2022/07/16 13:11:03;;;;;;;;;;;18.10;99.90;;;;;;6213692;23;19927;-69
2022/07/16 13:13:29;;;;;;;;;;;18.00;99.90;;;;;;6215055;23;19916;-70
2022/07/16 13:15:55;;;;;;;;;;;17.90;99.90;;;;;;6215537;23;19920;-70
2022/07/16 13:18:20;;;;;;;;;;;17.90;99.90;;;;;;6188260;23;20320;-70
2022/07/16 13:20:47;;;;;;;;;;;18.00;99.90;;;;;;6216027;23;20011;-70
2022/07/16 13:23:13;;;;;;;;;;;18.00;99.90;;;;;;6188630;23;20334;-70
2022/07/16 13:25:38;;;;;;;;;;;18.00;99.90;;;;;;6216456;23;19923;-70
2022/07/16 13:28:04;;;;;;;;;;;18.00;99.90;;;;;;6191068;23;19922;-70
2022/07/16 13:30:30;;;;;;;;;;;18.00;99.90;;;;;;6191356;23;19922;-70
2022/07/16 13:32:55;;;;;;;;;;;18.10;99.90;;;;;;6191210;23;19922;-70
2022/07/16 13:35:21;;;;;;;;;;;18.10;99.90;;;;;;6217868;23;19951;-70
2022/07/16 13:37:46;;;;;;;;;;;18.00;99.90;;;;;;6217442;23;19916;-70
2022/07/16 13:40:12;;;;;;;;;;;18.00;99.90;;;;;;6217811;23;19991;-71
2022/07/16 13:42:38;;;;;;;;;;;18.10;99.90;;;;;;6217470;23;19920;-70
2022/07/16 13:45:04;;;;;;;;;;;18.10;99.90;;;;;;6217622;23;19920;-70
2022/07/16 13:47:30;;;;;;;;;;;18.10;99.90;;;;;;6217616;23;19938;-70
2022/07/16 13:49:55;;;;;;;;;;;18.00;99.90;;;;;;6191033;23;19951;-70
2022/07/16 13:52:21;;;;;;;;;;;18.00;99.90;;;;;;6217753;23;20321;-70
2022/07/16 13:54:46;;;;;;;;;;;18.00;99.90;;;;;;6217656;23;19939;-70
2022/07/16 13:59:56;;;;;;;;;;;18.10;99.90;;;;;;6217599;23;19951;-71
2022/07/16 14:02:22;;;;;;;;;;;18.10;99.90;;;;;;6217591;23;20227;-69
2022/07/16 14:04:49;;;;;;;;;;;18.10;99.90;;;;;;6217965;23;19938;-70
2022/07/16 14:07:15;;;;;;;;;;;18.10;99.90;;;;;;6217577;23;19916;-70
2022/07/16 14:09:41;;;;;;;;;;;18.10;99.90;;;;;;6217339;23;20277;-70
2022/07/16 14:12:07;;;;;;;;;;;18.10;99.90;;;;;;6217432;23;19916;-70
2022/07/16 14:14:33;;;;;;;;;;;18.10;99.90;;;;;;6217643;23;19970;-70
2022/07/16 14:16:58;;;;;;;;;;;18.10;99.90;;;;;;6217461;23;20353;-70
2022/07/16 14:19:24;;;;;;;;;;;18.10;99.90;;;;;;6217377;23;19923;-70
2022/07/16 14:21:50;;;;;;;;;;;18.20;99.90;;;;;;6217415;23;19916;-70
2022/07/16 14:24:15;;;;;;;;;;;18.30;99.90;;;;;;6217393;23;19916;-71
2022/07/16 14:26:43;;;;;;;;;;;18.30;99.90;;;;;;6217701;23;19942;-70
2022/07/16 14:29:09;;;;;;;;;;;18.30;99.90;;;;;;6217267;23;19998;-70